sensor_id;sensor_type;location;lat;lon;timestamp;P1;durP1;ratioP1;P2;durP2;ratioP2
56343;SDS011;42245;42.058;24.700;2023-04-12T00:01:45;11.10;;;7.40;;
56343;SDS011;42245;42.058;24.700;2023-04-12T00:04:10;11.52;;;7.72;;
56343;SDS011;42245;42.058;24.700;2023-04-12T00:06:38;9.98;;;7.28;;
56343;SDS011;42245;42.058;24.700;2023-04-12T00:09:04;9.93;;;7.60;;
56343;SDS011;42245;42.058;24.700;2023-04-12T00:11:29;9.02;;;7.22;;
56343;SDS011;42245;42.058;24.700;2023-04-12T00:13:56;9.30;;;6.85;;
56343;SDS011;42245;42.058;24.700;2023-04-12T00:16:21;9.98;;;6.80;;
56343;SDS011;42245;42.058;24.700;2023-04-12T00:18:47;8.23;;;6.75;;
56343;SDS011;42245;42.058;24.700;2023-04-12T00:21:13;11.45;;;7.18;;
56343;SDS011;42245;42.058;24.700;2023-04-12T00:23:41;9.65;;;6.60;;
56343;SDS011;42245;42.058;24.700;2023-04-12T00:26:09;8.65;;;6.72;;
56343;SDS011;42245;42.058;24.700;2023-04-12T00:28:34;10.68;;;7.18;;
56343;SDS011;42245;42.058;24.700;2023-04-12T00:31:00;8.90;;;6.65;;
56343;SDS011;42245;42.058;24.700;2023-04-12T00:33:26;8.40;;;6.50;;
56343;SDS011;42245;42.058;24.700;2023-04-12T00:35:51;8.90;;;6.68;;
56343;SDS011;42245;42.058;24.700;2023-04-12T00:38:17;8.60;;;6.25;;
56343;SDS011;42245;42.058;24.700;2023-04-12T00:40:43;9.10;;;6.53;;
56343;SDS011;42245;42.058;24.700;2023-04-12T00:43:08;8.68;;;6.32;;
56343;SDS011;42245;42.058;24.700;2023-04-12T00:45:42;9.60;;;6.60;;
56343;SDS011;42245;42.058;24.700;2023-04-12T00:48:08;8.35;;;6.50;;
56343;SDS011;42245;42.058;24.700;2023-04-12T00:50:34;8.65;;;6.47;;
56343;SDS011;42245;42.058;24.700;2023-04-12T00:53:00;7.80;;;6.70;;
56343;SDS011;42245;42.058;24.700;2023-04-12T00:55:27;9.05;;;6.35;;
56343;SDS011;42245;42.058;24.700;2023-04-12T00:57:52;8.57;;;6.43;;
56343;SDS011;42245;42.058;24.700;2023-04-12T01:00:18;8.57;;;6.90;;
56343;SDS011;42245;42.058;24.700;2023-04-12T01:02:44;9.82;;;6.55;;
56343;SDS011;42245;42.058;24.700;2023-04-12T01:05:15;10.25;;;7.05;;
56343;SDS011;42245;42.058;24.700;2023-04-12T01:10:33;9.43;;;6.90;;
56343;SDS011;42245;42.058;24.700;2023-04-12T01:15:52;11.20;;;6.82;;
56343;SDS011;42245;42.058;24.700;2023-04-12T01:18:20;8.77;;;6.72;;
56343;SDS011;42245;42.058;24.700;2023-04-12T01:20:52;7.85;;;6.18;;
56343;SDS011;42245;42.058;24.700;2023-04-12T01:23:27;8.45;;;6.90;;
56343;SDS011;42245;42.058;24.700;2023-04-12T01:28:40;8.60;;;6.47;;
56343;SDS011;42245;42.058;24.700;2023-04-12T01:31:06;7.63;;;6.40;;
56343;SDS011;42245;42.058;24.700;2023-04-12T01:33:37;9.25;;;6.75;;
56343;SDS011;42245;42.058;24.700;2023-04-12T01:36:09;10.85;;;7.28;;
56343;SDS011;42245;42.058;24.700;2023-04-12T01:38:37;7.32;;;5.97;;
56343;SDS011;42245;42.058;24.700;2023-04-12T01:41:04;8.45;;;6.65;;
56343;SDS011;42245;42.058;24.700;2023-04-12T01:43:31;10.75;;;6.88;;
56343;SDS011;42245;42.058;24.700;2023-04-12T01:45:57;9.48;;;6.78;;
56343;SDS011;42245;42.058;24.700;2023-04-12T01:48:23;8.77;;;6.95;;
56343;SDS011;42245;42.058;24.700;2023-04-12T01:51:13;7.95;;;6.65;;
56343;SDS011;42245;42.058;24.700;2023-04-12T01:53:53;9.77;;;6.35;;
56343;SDS011;42245;42.058;24.700;2023-04-12T01:56:21;7.78;;;5.97;;
56343;SDS011;42245;42.058;24.700;2023-04-12T01:58:49;9.70;;;6.53;;
56343;SDS011;42245;42.058;24.700;2023-04-12T02:01:16;9.80;;;6.20;;
56343;SDS011;42245;42.058;24.700;2023-04-12T02:03:43;9.57;;;7.03;;
56343;SDS011;42245;42.058;24.700;2023-04-12T02:06:10;7.70;;;6.18;;
56343;SDS011;42245;42.058;24.700;2023-04-12T02:08:36;7.03;;;6.00;;
56343;SDS011;42245;42.058;24.700;2023-04-12T02:11:10;7.95;;;6.57;;
56343;SDS011;42245;42.058;24.700;2023-04-12T02:13:36;10.00;;;6.75;;
56343;SDS011;42245;42.058;24.700;2023-04-12T02:16:01;8.38;;;6.72;;
56343;SDS011;42245;42.058;24.700;2023-04-12T02:18:27;9.95;;;6.88;;
56343;SDS011;42245;42.058;24.700;2023-04-12T02:20:54;7.90;;;5.97;;
56343;SDS011;42245;42.058;24.700;2023-04-12T02:23:20;7.80;;;6.32;;
56343;SDS011;42245;42.058;24.700;2023-04-12T02:25:45;8.50;;;6.43;;
56343;SDS011;42245;42.058;24.700;2023-04-12T02:28:11;7.20;;;5.97;;
56343;SDS011;42245;42.058;24.700;2023-04-12T02:30:37;7.35;;;6.00;;
56343;SDS011;42245;42.058;24.700;2023-04-12T02:33:05;10.10;;;6.13;;
56343;SDS011;42245;42.058;24.700;2023-04-12T02:35:33;8.52;;;6.15;;
56343;SDS011;42245;42.058;24.700;2023-04-12T02:38:00;8.30;;;6.60;;
56343;SDS011;42245;42.058;24.700;2023-04-12T02:40:27;7.97;;;5.82;;
56343;SDS011;42245;42.058;24.700;2023-04-12T02:42:53;7.55;;;6.18;;
56343;SDS011;42245;42.058;24.700;2023-04-12T02:45:18;8.82;;;6.45;;
56343;SDS011;42245;42.058;24.700;2023-04-12T02:47:44;7.47;;;6.28;;
56343;SDS011;42245;42.058;24.700;2023-04-12T02:50:10;8.85;;;6.28;;
56343;SDS011;42245;42.058;24.700;2023-04-12T02:52:36;8.07;;;6.15;;
56343;SDS011;42245;42.058;24.700;2023-04-12T02:55:01;8.55;;;6.57;;
56343;SDS011;42245;42.058;24.700;2023-04-12T02:57:27;9.13;;;6.10;;
56343;SDS011;42245;42.058;24.700;2023-04-12T02:59:52;8.48;;;6.55;;
56343;SDS011;42245;42.058;24.700;2023-04-12T03:02:19;9.40;;;6.55;;
56343;SDS011;42245;42.058;24.700;2023-04-12T03:04:45;8.73;;;6.85;;
56343;SDS011;42245;42.058;24.700;2023-04-12T03:07:18;8.40;;;5.88;;
56343;SDS011;42245;42.058;24.700;2023-04-12T03:09:48;9.05;;;6.38;;
56343;SDS011;42245;42.058;24.700;2023-04-12T03:12:14;9.98;;;6.65;;
56343;SDS011;42245;42.058;24.700;2023-04-12T03:14:40;7.97;;;6.40;;
56343;SDS011;42245;42.058;24.700;2023-04-12T03:17:06;8.52;;;6.15;;
56343;SDS011;42245;42.058;24.700;2023-04-12T03:19:32;7.75;;;5.95;;
56343;SDS011;42245;42.058;24.700;2023-04-12T03:21:59;7.65;;;6.20;;
56343;SDS011;42245;42.058;24.700;2023-04-12T03:24:25;10.85;;;6.70;;
56343;SDS011;42245;42.058;24.700;2023-04-12T03:26:51;11.50;;;7.07;;
56343;SDS011;42245;42.058;24.700;2023-04-12T03:29:17;10.10;;;6.53;;
56343;SDS011;42245;42.058;24.700;2023-04-12T03:31:43;8.57;;;6.47;;
56343;SDS011;42245;42.058;24.700;2023-04-12T03:34:08;9.95;;;6.65;;
56343;SDS011;42245;42.058;24.700;2023-04-12T03:36:34;8.45;;;6.80;;
56343;SDS011;42245;42.058;24.700;2023-04-12T03:38:59;10.80;;;6.57;;
56343;SDS011;42245;42.058;24.700;2023-04-12T03:41:25;9.00;;;6.63;;
56343;SDS011;42245;42.058;24.700;2023-04-12T03:43:52;9.40;;;7.13;;
56343;SDS011;42245;42.058;24.700;2023-04-12T03:46:17;17.83;;;7.53;;
56343;SDS011;42245;42.058;24.700;2023-04-12T03:48:43;9.80;;;7.25;;
56343;SDS011;42245;42.058;24.700;2023-04-12T03:51:08;12.48;;;7.20;;
56343;SDS011;42245;42.058;24.700;2023-04-12T03:53:36;10.50;;;7.43;;
56343;SDS011;42245;42.058;24.700;2023-04-12T03:56:02;11.35;;;7.25;;
56343;SDS011;42245;42.058;24.700;2023-04-12T03:58:28;12.60;;;7.82;;
56343;SDS011;42245;42.058;24.700;2023-04-12T04:00:53;10.38;;;7.53;;
56343;SDS011;42245;42.058;24.700;2023-04-12T04:03:19;10.55;;;7.53;;
56343;SDS011;42245;42.058;24.700;2023-04-12T04:05:46;12.32;;;8.43;;
56343;SDS011;42245;42.058;24.700;2023-04-12T04:08:12;9.98;;;7.50;;
56343;SDS011;42245;42.058;24.700;2023-04-12T04:10:37;10.02;;;7.55;;
56343;SDS011;42245;42.058;24.700;2023-04-12T04:13:03;11.07;;;7.57;;
56343;SDS011;42245;42.058;24.700;2023-04-12T04:15:28;10.68;;;7.53;;
56343;SDS011;42245;42.058;24.700;2023-04-12T04:17:54;10.45;;;7.32;;
56343;SDS011;42245;42.058;24.700;2023-04-12T04:20:19;10.52;;;7.43;;
56343;SDS011;42245;42.058;24.700;2023-04-12T04:22:45;10.30;;;7.85;;
56343;SDS011;42245;42.058;24.700;2023-04-12T04:25:14;14.30;;;7.82;;
56343;SDS011;42245;42.058;24.700;2023-04-12T04:27:40;13.57;;;7.53;;
56343;SDS011;42245;42.058;24.700;2023-04-12T04:30:09;12.57;;;8.25;;
56343;SDS011;42245;42.058;24.700;2023-04-12T04:32:36;10.68;;;8.00;;
56343;SDS011;42245;42.058;24.700;2023-04-12T04:35:01;10.10;;;8.10;;
56343;SDS011;42245;42.058;24.700;2023-04-12T04:37:28;12.55;;;8.00;;
56343;SDS011;42245;42.058;24.700;2023-04-12T04:39:59;11.73;;;8.60;;
56343;SDS011;42245;42.058;24.700;2023-04-12T04:42:26;12.38;;;8.57;;
56343;SDS011;42245;42.058;24.700;2023-04-12T04:44:53;11.57;;;8.27;;
56343;SDS011;42245;42.058;24.700;2023-04-12T04:47:27;12.30;;;8.45;;
56343;SDS011;42245;42.058;24.700;2023-04-12T04:49:56;15.45;;;9.45;;
56343;SDS011;42245;42.058;24.700;2023-04-12T04:52:23;12.52;;;9.18;;
56343;SDS011;42245;42.058;24.700;2023-04-12T04:54:49;12.85;;;9.20;;
56343;SDS011;42245;42.058;24.700;2023-04-12T04:57:15;12.48;;;8.88;;
56343;SDS011;42245;42.058;24.700;2023-04-12T04:59:40;12.95;;;9.38;;
56343;SDS011;42245;42.058;24.700;2023-04-12T05:02:06;13.35;;;8.88;;
56343;SDS011;42245;42.058;24.700;2023-04-12T05:04:32;13.50;;;9.15;;
56343;SDS011;42245;42.058;24.700;2023-04-12T05:06:57;13.55;;;9.32;;
56343;SDS011;42245;42.058;24.700;2023-04-12T05:09:22;14.20;;;8.93;;
56343;SDS011;42245;42.058;24.700;2023-04-12T05:11:48;13.07;;;9.02;;
56343;SDS011;42245;42.058;24.700;2023-04-12T05:14:13;10.75;;;8.55;;
56343;SDS011;42245;42.058;24.700;2023-04-12T05:16:39;12.23;;;9.15;;
56343;SDS011;42245;42.058;24.700;2023-04-12T05:19:04;13.10;;;9.90;;
56343;SDS011;42245;42.058;24.700;2023-04-12T05:21:30;11.77;;;9.15;;
56343;SDS011;42245;42.058;24.700;2023-04-12T05:23:57;12.90;;;9.82;;
56343;SDS011;42245;42.058;24.700;2023-04-12T05:26:22;16.10;;;10.50;;
56343;SDS011;42245;42.058;24.700;2023-04-12T05:28:48;15.05;;;9.93;;
56343;SDS011;42245;42.058;24.700;2023-04-12T05:31:13;13.07;;;9.73;;
56343;SDS011;42245;42.058;24.700;2023-04-12T05:33:39;16.35;;;10.52;;
56343;SDS011;42245;42.058;24.700;2023-04-12T05:36:04;11.73;;;9.27;;
56343;SDS011;42245;42.058;24.700;2023-04-12T05:38:30;15.55;;;10.63;;
56343;SDS011;42245;42.058;24.700;2023-04-12T05:40:55;15.90;;;10.50;;
56343;SDS011;42245;42.058;24.700;2023-04-12T05:43:21;17.55;;;10.70;;
56343;SDS011;42245;42.058;24.700;2023-04-12T05:45:46;21.63;;;11.57;;
56343;SDS011;42245;42.058;24.700;2023-04-12T05:48:15;16.10;;;11.00;;
56343;SDS011;42245;42.058;24.700;2023-04-12T05:50:40;14.82;;;11.60;;
56343;SDS011;42245;42.058;24.700;2023-04-12T05:53:05;15.10;;;10.65;;
56343;SDS011;42245;42.058;24.700;2023-04-12T05:55:31;17.10;;;11.82;;
56343;SDS011;42245;42.058;24.700;2023-04-12T05:57:57;15.05;;;11.15;;
56343;SDS011;42245;42.058;24.700;2023-04-12T06:00:22;17.95;;;11.00;;
56343;SDS011;42245;42.058;24.700;2023-04-12T06:02:48;17.08;;;12.00;;
56343;SDS011;42245;42.058;24.700;2023-04-12T06:05:14;14.38;;;11.43;;
56343;SDS011;42245;42.058;24.700;2023-04-12T06:07:42;18.67;;;12.55;;
56343;SDS011;42245;42.058;24.700;2023-04-12T06:10:10;16.95;;;11.23;;
56343;SDS011;42245;42.058;24.700;2023-04-12T06:12:37;18.27;;;11.63;;
56343;SDS011;42245;42.058;24.700;2023-04-12T06:15:02;16.30;;;11.63;;
56343;SDS011;42245;42.058;24.700;2023-04-12T06:17:28;18.27;;;11.65;;
56343;SDS011;42245;42.058;24.700;2023-04-12T06:19:54;15.10;;;11.32;;
56343;SDS011;42245;42.058;24.700;2023-04-12T06:22:19;19.35;;;12.93;;
56343;SDS011;42245;42.058;24.700;2023-04-12T06:24:45;16.65;;;11.63;;
56343;SDS011;42245;42.058;24.700;2023-04-12T06:27:10;18.70;;;11.88;;
56343;SDS011;42245;42.058;24.700;2023-04-12T06:29:36;15.77;;;12.02;;
56343;SDS011;42245;42.058;24.700;2023-04-12T06:32:01;20.77;;;12.32;;
56343;SDS011;42245;42.058;24.700;2023-04-12T06:34:26;20.77;;;12.15;;
56343;SDS011;42245;42.058;24.700;2023-04-12T06:36:52;17.50;;;11.90;;
56343;SDS011;42245;42.058;24.700;2023-04-12T06:39:17;15.75;;;11.73;;
56343;SDS011;42245;42.058;24.700;2023-04-12T06:41:43;16.33;;;12.00;;
56343;SDS011;42245;42.058;24.700;2023-04-12T06:44:11;17.55;;;12.25;;
56343;SDS011;42245;42.058;24.700;2023-04-12T06:46:36;17.48;;;11.32;;
56343;SDS011;42245;42.058;24.700;2023-04-12T06:49:02;15.27;;;11.43;;
56343;SDS011;42245;42.058;24.700;2023-04-12T06:51:27;16.42;;;11.30;;
56343;SDS011;42245;42.058;24.700;2023-04-12T06:53:53;18.02;;;11.95;;
56343;SDS011;42245;42.058;24.700;2023-04-12T06:56:20;17.30;;;10.98;;
56343;SDS011;42245;42.058;24.700;2023-04-12T06:58:45;17.08;;;9.80;;
56343;SDS011;42245;42.058;24.700;2023-04-12T07:01:11;15.30;;;9.60;;
56343;SDS011;42245;42.058;24.700;2023-04-12T07:03:38;13.07;;;9.35;;
56343;SDS011;42245;42.058;24.700;2023-04-12T07:06:04;12.40;;;9.63;;
56343;SDS011;42245;42.058;24.700;2023-04-12T07:08:36;15.90;;;9.77;;
56343;SDS011;42245;42.058;24.700;2023-04-12T07:11:02;13.15;;;8.63;;
56343;SDS011;42245;42.058;24.700;2023-04-12T07:13:27;13.98;;;8.85;;
56343;SDS011;42245;42.058;24.700;2023-04-12T07:15:54;12.65;;;6.93;;
56343;SDS011;42245;42.058;24.700;2023-04-12T07:18:20;9.93;;;6.85;;
56343;SDS011;42245;42.058;24.700;2023-04-12T07:20:46;8.25;;;4.50;;
56343;SDS011;42245;42.058;24.700;2023-04-12T07:23:12;7.10;;;4.95;;
56343;SDS011;42245;42.058;24.700;2023-04-12T07:25:38;6.85;;;3.47;;
56343;SDS011;42245;42.058;24.700;2023-04-12T07:28:04;3.75;;;2.42;;
56343;SDS011;42245;42.058;24.700;2023-04-12T07:30:30;3.72;;;1.95;;
56343;SDS011;42245;42.058;24.700;2023-04-12T07:32:55;2.20;;;1.85;;
56343;SDS011;42245;42.058;24.700;2023-04-12T07:35:21;12.70;;;2.40;;
56343;SDS011;42245;42.058;24.700;2023-04-12T07:37:46;5.68;;;2.05;;
56343;SDS011;42245;42.058;24.700;2023-04-12T07:40:12;6.55;;;1.90;;
56343;SDS011;42245;42.058;24.700;2023-04-12T07:42:37;3.53;;;2.60;;
56343;SDS011;42245;42.058;24.700;2023-04-12T07:45:03;3.60;;;3.00;;
56343;SDS011;42245;42.058;24.700;2023-04-12T07:47:28;5.50;;;3.50;;
56343;SDS011;42245;42.058;24.700;2023-04-12T07:49:54;7.65;;;4.53;;
56343;SDS011;42245;42.058;24.700;2023-04-12T07:52:20;6.43;;;4.95;;
56343;SDS011;42245;42.058;24.700;2023-04-12T07:54:45;9.00;;;5.60;;
56343;SDS011;42245;42.058;24.700;2023-04-12T07:57:11;7.75;;;5.32;;
56343;SDS011;42245;42.058;24.700;2023-04-12T07:59:36;6.03;;;4.70;;
56343;SDS011;42245;42.058;24.700;2023-04-12T08:02:02;8.15;;;4.70;;
56343;SDS011;42245;42.058;24.700;2023-04-12T08:04:27;11.25;;;5.35;;
56343;SDS011;42245;42.058;24.700;2023-04-12T08:06:53;6.00;;;4.82;;
56343;SDS011;42245;42.058;24.700;2023-04-12T08:09:19;6.78;;;4.70;;
56343;SDS011;42245;42.058;24.700;2023-04-12T08:11:44;6.07;;;4.20;;
56343;SDS011;42245;42.058;24.700;2023-04-12T08:14:11;5.40;;;4.10;;
56343;SDS011;42245;42.058;24.700;2023-04-12T08:16:37;4.72;;;3.85;;
56343;SDS011;42245;42.058;24.700;2023-04-12T08:19:02;5.55;;;3.50;;
56343;SDS011;42245;42.058;24.700;2023-04-12T08:21:28;6.05;;;3.55;;
56343;SDS011;42245;42.058;24.700;2023-04-12T08:23:54;6.30;;;3.95;;
56343;SDS011;42245;42.058;24.700;2023-04-12T08:26:20;7.03;;;4.07;;
56343;SDS011;42245;42.058;24.700;2023-04-12T08:28:45;6.82;;;3.95;;
56343;SDS011;42245;42.058;24.700;2023-04-12T08:31:12;6.00;;;3.72;;
56343;SDS011;42245;42.058;24.700;2023-04-12T08:33:38;4.57;;;3.67;;
56343;SDS011;42245;42.058;24.700;2023-04-12T08:36:04;5.03;;;3.78;;
56343;SDS011;42245;42.058;24.700;2023-04-12T08:38:30;7.55;;;4.03;;
56343;SDS011;42245;42.058;24.700;2023-04-12T08:40:55;5.45;;;3.90;;
56343;SDS011;42245;42.058;24.700;2023-04-12T08:43:21;4.57;;;3.80;;
56343;SDS011;42245;42.058;24.700;2023-04-12T08:45:53;5.35;;;4.05;;
56343;SDS011;42245;42.058;24.700;2023-04-12T08:48:19;5.82;;;3.35;;
56343;SDS011;42245;42.058;24.700;2023-04-12T08:50:46;5.43;;;3.58;;
56343;SDS011;42245;42.058;24.700;2023-04-12T08:53:13;7.68;;;3.38;;
56343;SDS011;42245;42.058;24.700;2023-04-12T08:55:38;4.05;;;3.17;;
56343;SDS011;42245;42.058;24.700;2023-04-12T08:58:03;4.82;;;3.30;;
56343;SDS011;42245;42.058;24.700;2023-04-12T09:00:32;3.38;;;2.70;;
56343;SDS011;42245;42.058;24.700;2023-04-12T09:02:58;4.03;;;2.90;;
56343;SDS011;42245;42.058;24.700;2023-04-12T09:05:27;6.22;;;3.40;;
56343;SDS011;42245;42.058;24.700;2023-04-12T09:07:54;4.18;;;3.15;;
56343;SDS011;42245;42.058;24.700;2023-04-12T09:10:32;8.50;;;3.30;;
56343;SDS011;42245;42.058;24.700;2023-04-12T09:13:00;3.90;;;3.00;;
56343;SDS011;42245;42.058;24.700;2023-04-12T09:15:26;6.85;;;3.47;;
56343;SDS011;42245;42.058;24.700;2023-04-12T09:18:10;5.32;;;3.03;;
56343;SDS011;42245;42.058;24.700;2023-04-12T09:20:37;3.33;;;2.83;;
56343;SDS011;42245;42.058;24.700;2023-04-12T09:26:00;5.28;;;2.97;;
56343;SDS011;42245;42.058;24.700;2023-04-12T09:28:26;3.88;;;3.00;;
56343;SDS011;42245;42.058;24.700;2023-04-12T09:30:52;5.07;;;3.00;;
56343;SDS011;42245;42.058;24.700;2023-04-12T09:33:19;5.50;;;2.60;;
56343;SDS011;42245;42.058;24.700;2023-04-12T09:35:46;5.68;;;2.70;;
56343;SDS011;42245;42.058;24.700;2023-04-12T09:38:12;3.55;;;2.85;;
56343;SDS011;42245;42.058;24.700;2023-04-12T09:40:37;2.85;;;2.55;;
56343;SDS011;42245;42.058;24.700;2023-04-12T09:43:03;4.60;;;2.92;;
56343;SDS011;42245;42.058;24.700;2023-04-12T09:45:32;3.72;;;2.92;;
56343;SDS011;42245;42.058;24.700;2023-04-12T09:48:02;3.92;;;2.90;;
56343;SDS011;42245;42.058;24.700;2023-04-12T09:50:29;5.10;;;3.00;;
56343;SDS011;42245;42.058;24.700;2023-04-12T09:52:57;3.40;;;2.90;;
56343;SDS011;42245;42.058;24.700;2023-04-12T09:55:25;6.85;;;3.30;;
56343;SDS011;42245;42.058;24.700;2023-04-12T09:57:52;3.95;;;3.10;;
56343;SDS011;42245;42.058;24.700;2023-04-12T10:00:20;7.25;;;2.90;;
56343;SDS011;42245;42.058;24.700;2023-04-12T10:02:50;3.70;;;2.95;;
56343;SDS011;42245;42.058;24.700;2023-04-12T10:05:18;7.05;;;2.83;;
56343;SDS011;42245;42.058;24.700;2023-04-12T10:07:44;5.30;;;2.85;;
56343;SDS011;42245;42.058;24.700;2023-04-12T10:10:12;8.38;;;3.17;;
56343;SDS011;42245;42.058;24.700;2023-04-12T10:12:39;8.10;;;3.25;;
56343;SDS011;42245;42.058;24.700;2023-04-12T10:15:08;8.93;;;3.30;;
56343;SDS011;42245;42.058;24.700;2023-04-12T10:17:41;5.30;;;3.13;;
56343;SDS011;42245;42.058;24.700;2023-04-12T10:20:14;4.65;;;3.28;;
56343;SDS011;42245;42.058;24.700;2023-04-12T10:22:41;4.40;;;2.30;;
56343;SDS011;42245;42.058;24.700;2023-04-12T10:25:11;3.75;;;2.65;;
56343;SDS011;42245;42.058;24.700;2023-04-12T10:27:38;3.03;;;2.42;;
56343;SDS011;42245;42.058;24.700;2023-04-12T10:32:47;2.92;;;2.40;;
56343;SDS011;42245;42.058;24.700;2023-04-12T10:35:52;3.00;;;2.30;;
56343;SDS011;42245;42.058;24.700;2023-04-12T10:38:21;2.83;;;2.47;;
56343;SDS011;42245;42.058;24.700;2023-04-12T10:43:37;4.68;;;2.33;;
56343;SDS011;42245;42.058;24.700;2023-04-12T10:46:02;2.70;;;2.20;;
56343;SDS011;42245;42.058;24.700;2023-04-12T10:51:16;3.97;;;2.08;;
56343;SDS011;42245;42.058;24.700;2023-04-12T10:53:53;3.28;;;2.63;;
56343;SDS011;42245;42.058;24.700;2023-04-12T10:56:42;4.75;;;2.63;;
56343;SDS011;42245;42.058;24.700;2023-04-12T10:59:08;2.60;;;2.40;;
56343;SDS011;42245;42.058;24.700;2023-04-12T11:01:35;3.28;;;2.30;;
56343;SDS011;42245;42.058;24.700;2023-04-12T11:04:04;4.05;;;2.22;;
56343;SDS011;42245;42.058;24.700;2023-04-12T11:11:42;5.00;;;2.72;;
56343;SDS011;42245;42.058;24.700;2023-04-12T11:14:08;8.13;;;5.82;;
56343;SDS011;42245;42.058;24.700;2023-04-12T11:16:51;6.38;;;3.92;;
56343;SDS011;42245;42.058;24.700;2023-04-12T11:19:41;3.15;;;2.03;;
56343;SDS011;42245;42.058;24.700;2023-04-12T11:22:11;1.20;;;1.10;;
56343;SDS011;42245;42.058;24.700;2023-04-12T11:24:45;2.90;;;1.10;;
56343;SDS011;42245;42.058;24.700;2023-04-12T11:27:12;1.40;;;1.10;;
56343;SDS011;42245;42.058;24.700;2023-04-12T11:29:38;3.13;;;1.42;;
56343;SDS011;42245;42.058;24.700;2023-04-12T11:32:04;3.17;;;1.40;;
56343;SDS011;42245;42.058;24.700;2023-04-12T11:34:32;1.67;;;1.30;;
56343;SDS011;42245;42.058;24.700;2023-04-12T11:36:58;2.72;;;1.55;;
56343;SDS011;42245;42.058;24.700;2023-04-12T11:39:24;2.10;;;1.67;;
56343;SDS011;42245;42.058;24.700;2023-04-12T11:41:51;9.88;;;1.95;;
56343;SDS011;42245;42.058;24.700;2023-04-12T11:44:16;4.25;;;1.67;;
56343;SDS011;42245;42.058;24.700;2023-04-12T11:46:43;3.22;;;1.70;;
56343;SDS011;42245;42.058;24.700;2023-04-12T11:49:15;2.58;;;1.70;;
56343;SDS011;42245;42.058;24.700;2023-04-12T11:51:42;2.17;;;1.73;;
56343;SDS011;42245;42.058;24.700;2023-04-12T11:54:08;2.38;;;2.05;;
56343;SDS011;42245;42.058;24.700;2023-04-12T11:56:35;3.05;;;1.50;;
56343;SDS011;42245;42.058;24.700;2023-04-12T11:59:01;1.92;;;1.73;;
56343;SDS011;42245;42.058;24.700;2023-04-12T12:01:26;3.97;;;1.60;;
56343;SDS011;42245;42.058;24.700;2023-04-12T12:03:53;1.58;;;1.48;;
56343;SDS011;42245;42.058;24.700;2023-04-12T12:06:19;1.90;;;1.50;;
56343;SDS011;42245;42.058;24.700;2023-04-12T12:08:45;2.33;;;1.55;;
56343;SDS011;42245;42.058;24.700;2023-04-12T12:11:10;2.40;;;1.48;;
56343;SDS011;42245;42.058;24.700;2023-04-12T12:16:09;3.95;;;1.60;;
56343;SDS011;42245;42.058;24.700;2023-04-12T12:18:38;4.05;;;1.38;;
56343;SDS011;42245;42.058;24.700;2023-04-12T12:21:07;6.05;;;1.40;;
56343;SDS011;42245;42.058;24.700;2023-04-12T12:23:33;5.25;;;1.77;;
56343;SDS011;42245;42.058;24.700;2023-04-12T12:25:59;2.85;;;1.52;;
56343;SDS011;42245;42.058;24.700;2023-04-12T12:28:27;4.50;;;1.58;;
56343;SDS011;42245;42.058;24.700;2023-04-12T12:30:53;2.03;;;1.40;;
56343;SDS011;42245;42.058;24.700;2023-04-12T12:33:22;1.50;;;1.38;;
56343;SDS011;42245;42.058;24.700;2023-04-12T12:35:55;4.25;;;1.80;;
56343;SDS011;42245;42.058;24.700;2023-04-12T12:38:21;3.13;;;1.55;;
56343;SDS011;42245;42.058;24.700;2023-04-12T12:40:46;3.70;;;1.80;;
56343;SDS011;42245;42.058;24.700;2023-04-12T12:43:17;3.25;;;1.52;;
56343;SDS011;42245;42.058;24.700;2023-04-12T12:45:44;2.95;;;1.50;;
56343;SDS011;42245;42.058;24.700;2023-04-12T12:48:10;5.97;;;1.73;;
56343;SDS011;42245;42.058;24.700;2023-04-12T12:50:35;1.70;;;1.15;;
56343;SDS011;42245;42.058;24.700;2023-04-12T12:53:02;1.75;;;1.52;;
56343;SDS011;42245;42.058;24.700;2023-04-12T12:55:28;1.80;;;1.40;;
56343;SDS011;42245;42.058;24.700;2023-04-12T12:57:55;5.18;;;1.30;;
56343;SDS011;42245;42.058;24.700;2023-04-12T13:00:22;1.52;;;1.25;;
56343;SDS011;42245;42.058;24.700;2023-04-12T13:02:48;3.35;;;1.27;;
56343;SDS011;42245;42.058;24.700;2023-04-12T13:05:14;3.22;;;1.27;;
56343;SDS011;42245;42.058;24.700;2023-04-12T13:07:40;3.60;;;1.30;;
56343;SDS011;42245;42.058;24.700;2023-04-12T13:10:06;1.63;;;1.23;;
56343;SDS011;42245;42.058;24.700;2023-04-12T13:12:32;4.20;;;1.30;;
56343;SDS011;42245;42.058;24.700;2023-04-12T13:14:58;3.53;;;1.42;;
56343;SDS011;42245;42.058;24.700;2023-04-12T13:17:27;2.78;;;1.20;;
56343;SDS011;42245;42.058;24.700;2023-04-12T13:19:53;3.72;;;1.15;;
56343;SDS011;42245;42.058;24.700;2023-04-12T13:22:19;3.58;;;1.30;;
56343;SDS011;42245;42.058;24.700;2023-04-12T13:24:45;1.10;;;1.00;;
56343;SDS011;42245;42.058;24.700;2023-04-12T13:27:11;1.35;;;0.98;;
56343;SDS011;42245;42.058;24.700;2023-04-12T13:29:37;1.40;;;1.27;;
56343;SDS011;42245;42.058;24.700;2023-04-12T13:32:03;5.15;;;1.23;;
56343;SDS011;42245;42.058;24.700;2023-04-12T13:34:29;1.27;;;1.10;;
56343;SDS011;42245;42.058;24.700;2023-04-12T13:36:55;4.70;;;1.10;;
56343;SDS011;42245;42.058;24.700;2023-04-12T13:39:20;1.10;;;1.00;;
56343;SDS011;42245;42.058;24.700;2023-04-12T13:41:46;2.25;;;1.27;;
56343;SDS011;42245;42.058;24.700;2023-04-12T13:44:11;5.35;;;1.08;;
56343;SDS011;42245;42.058;24.700;2023-04-12T13:46:37;1.10;;;1.00;;
56343;SDS011;42245;42.058;24.700;2023-04-12T13:49:02;2.40;;;1.27;;
56343;SDS011;42245;42.058;24.700;2023-04-12T13:51:28;2.17;;;1.30;;
56343;SDS011;42245;42.058;24.700;2023-04-12T13:53:54;3.75;;;1.55;;
56343;SDS011;42245;42.058;24.700;2023-04-12T13:56:19;1.80;;;0.98;;
56343;SDS011;42245;42.058;24.700;2023-04-12T13:58:45;2.80;;;1.10;;
56343;SDS011;42245;42.058;24.700;2023-04-12T14:01:11;2.38;;;1.20;;
56343;SDS011;42245;42.058;24.700;2023-04-12T14:03:37;1.98;;;1.10;;
56343;SDS011;42245;42.058;24.700;2023-04-12T14:06:03;6.55;;;1.40;;
56343;SDS011;42245;42.058;24.700;2023-04-12T14:08:29;3.47;;;1.15;;
56343;SDS011;42245;42.058;24.700;2023-04-12T14:10:55;3.55;;;1.40;;
56343;SDS011;42245;42.058;24.700;2023-04-12T14:13:20;4.57;;;1.17;;
56343;SDS011;42245;42.058;24.700;2023-04-12T14:15:46;4.10;;;1.30;;
56343;SDS011;42245;42.058;24.700;2023-04-12T14:18:11;3.72;;;2.30;;
56343;SDS011;42245;42.058;24.700;2023-04-12T14:20:37;3.95;;;2.13;;
56343;SDS011;42245;42.058;24.700;2023-04-12T14:23:02;2.58;;;1.67;;
56343;SDS011;42245;42.058;24.700;2023-04-12T14:25:28;8.35;;;1.40;;
56343;SDS011;42245;42.058;24.700;2023-04-12T14:27:54;6.03;;;1.60;;
56343;SDS011;42245;42.058;24.700;2023-04-12T14:30:19;3.72;;;1.25;;
56343;SDS011;42245;42.058;24.700;2023-04-12T14:32:45;2.65;;;1.30;;
56343;SDS011;42245;42.058;24.700;2023-04-12T14:35:11;6.47;;;1.40;;
56343;SDS011;42245;42.058;24.700;2023-04-12T14:37:36;3.30;;;1.40;;
56343;SDS011;42245;42.058;24.700;2023-04-12T14:40:02;2.15;;;1.23;;
56343;SDS011;42245;42.058;24.700;2023-04-12T14:42:30;6.40;;;1.45;;
56343;SDS011;42245;42.058;24.700;2023-04-12T14:44:56;10.07;;;1.30;;
56343;SDS011;42245;42.058;24.700;2023-04-12T14:47:22;2.28;;;1.27;;
56343;SDS011;42245;42.058;24.700;2023-04-12T14:49:47;2.10;;;1.30;;
56343;SDS011;42245;42.058;24.700;2023-04-12T14:52:13;2.28;;;1.30;;
56343;SDS011;42245;42.058;24.700;2023-04-12T14:54:38;3.53;;;1.50;;